createdAt,value
2022-11-30T00:00:37.655Z,6.38
2022-11-30T00:03:05.097Z,6.40
2022-11-30T00:05:31.719Z,6.37
2022-11-30T00:08:01.414Z,6.38
2022-11-30T00:10:28.059Z,6.37
2022-11-30T00:12:54.629Z,6.41
2022-11-30T00:15:21.706Z,6.38
2022-11-30T00:17:48.370Z,6.37
2022-11-30T00:20:16.436Z,6.34
2022-11-30T00:22:42.973Z,6.35
2022-11-30T00:25:09.586Z,6.42
2022-11-30T00:27:36.338Z,6.35
2022-11-30T00:30:02.732Z,6.38
2022-11-30T00:32:29.625Z,6.38
2022-11-30T00:34:56.025Z,6.32
2022-11-30T00:37:22.907Z,6.33
2022-11-30T00:39:49.390Z,6.33
2022-11-30T00:42:16.108Z,6.32
2022-11-30T00:44:42.636Z,6.30
2022-11-30T00:47:09.201Z,6.33
2022-11-30T00:49:35.697Z,6.46
2022-11-30T00:52:02.169Z,6.38
2022-11-30T00:54:28.611Z,6.42
2022-11-30T00:56:55.062Z,6.41
2022-11-30T00:59:22.670Z,6.37
2022-11-30T01:01:49.112Z,6.40
2022-11-30T01:04:15.536Z,6.45
2022-11-30T01:06:41.949Z,6.35
2022-11-30T01:09:09.099Z,6.35
2022-11-30T01:11:35.448Z,6.30
2022-11-30T01:14:02.320Z,6.34
2022-11-30T01:16:32.127Z,6.28
2022-11-30T01:18:59.498Z,6.25
2022-11-30T01:21:28.408Z,6.31
2022-11-30T01:23:55.433Z,6.33
2022-11-30T01:26:23.461Z,6.32
2022-11-30T01:28:55.214Z,6.26
2022-11-30T01:31:24.523Z,6.30
2022-11-30T01:33:53.633Z,6.37
2022-11-30T01:36:23.074Z,6.30
2022-11-30T01:38:51.733Z,6.33
2022-11-30T01:41:29.407Z,6.26
2022-11-30T01:43:58.521Z,6.21
2022-11-30T01:46:34.091Z,6.17
2022-11-30T01:52:34.914Z,6.16
2022-11-30T01:55:18.755Z,6.23
2022-11-30T01:57:50.449Z,6.22
2022-11-30T02:00:17.788Z,6.23
2022-11-30T02:02:53.200Z,6.23
2022-11-30T02:05:21.061Z,6.16
2022-11-30T02:07:48.310Z,6.16
2022-11-30T02:10:23.325Z,6.18
2022-11-30T02:13:20.653Z,6.16
2022-11-30T02:16:21.583Z,6.17
2022-11-30T02:19:11.607Z,6.14
2022-11-30T02:21:56.968Z,6.19
2022-11-30T02:24:41.862Z,6.17
2022-11-30T02:27:50.492Z,6.14
2022-11-30T02:30:21.367Z,6.11
2022-11-30T02:33:03.784Z,6.14
2022-11-30T02:35:34.923Z,6.13
2022-11-30T02:38:03.639Z,6.12
2022-11-30T02:40:30.173Z,6.15
2022-11-30T02:43:00.218Z,6.09
2022-11-30T02:45:37.526Z,6.09
2022-11-30T02:48:13.938Z,6.20
2022-11-30T02:50:48.599Z,6.15
2022-11-30T02:53:15.066Z,6.09
2022-11-30T02:55:41.703Z,6.09
2022-11-30T02:58:08.188Z,6.09
2022-11-30T03:00:34.780Z,6.08
2022-11-30T03:03:01.370Z,6.06
2022-11-30T03:05:27.983Z,6.09
2022-11-30T03:07:54.465Z,6.07
2022-11-30T03:10:21.489Z,6.08
2022-11-30T03:12:47.888Z,6.05
2022-11-30T03:15:14.649Z,6.08
2022-11-30T03:17:41.056Z,6.08
2022-11-30T03:20:08.352Z,6.07
2022-11-30T03:22:34.820Z,6.06
2022-11-30T03:25:01.358Z,6.10
2022-11-30T03:27:27.720Z,6.08
2022-11-30T03:29:54.434Z,6.08
2022-11-30T03:32:20.805Z,6.07
2022-11-30T03:34:47.512Z,6.07
2022-11-30T03:37:14.189Z,6.08
2022-11-30T03:39:41.093Z,6.07
2022-11-30T03:42:07.580Z,6.16
2022-11-30T03:44:35.206Z,6.11
2022-11-30T03:47:01.589Z,6.12
2022-11-30T03:49:28.094Z,6.09
2022-11-30T03:51:55.650Z,6.13
2022-11-30T03:54:22.273Z,6.14
2022-11-30T03:56:48.813Z,6.16
2022-11-30T03:59:15.256Z,6.15
2022-11-30T04:01:41.809Z,6.10
2022-11-30T04:04:08.387Z,6.10
2022-11-30T04:06:34.829Z,6.09
2022-11-30T04:09:01.362Z,6.15
2022-11-30T04:11:27.707Z,6.03
2022-11-30T04:13:54.262Z,6.07
2022-11-30T04:16:20.751Z,6.07
2022-11-30T04:18:47.314Z,6.03
2022-11-30T04:21:13.675Z,6.04
2022-11-30T04:23:40.599Z,6.09
2022-11-30T04:26:10.655Z,6.06
2022-11-30T04:28:37.298Z,6.06
2022-11-30T04:31:04.124Z,6.12
2022-11-30T04:33:30.902Z,6.05
2022-11-30T04:36:06.217Z,6.09
2022-11-30T04:38:33.361Z,6.08
2022-11-30T04:41:00.213Z,6.06
2022-11-30T04:43:26.759Z,5.97
2022-11-30T04:45:53.218Z,6.04
2022-11-30T04:48:19.603Z,6.03
2022-11-30T04:50:46.265Z,6.07
2022-11-30T04:53:12.673Z,6.05
2022-11-30T04:55:39.424Z,6.11
2022-11-30T04:58:06.627Z,6.03
2022-11-30T05:00:34.416Z,6.00
2022-11-30T05:03:00.941Z,6.07
2022-11-30T05:05:27.669Z,6.04
2022-11-30T05:07:59.195Z,6.08
2022-11-30T05:10:29.402Z,5.95
2022-11-30T05:12:56.870Z,5.95
2022-11-30T05:15:23.448Z,6.00
2022-11-30T05:17:49.899Z,6.05
2022-11-30T05:20:16.696Z,6.02
2022-11-30T05:22:43.120Z,6.00
2022-11-30T05:25:10.150Z,5.99
2022-11-30T05:27:37.360Z,5.95
2022-11-30T05:30:05.181Z,6.04
2022-11-30T05:32:31.794Z,6.03
2022-11-30T05:34:58.807Z,6.04
2022-11-30T05:37:25.497Z,5.98
2022-11-30T05:39:51.984Z,5.96
2022-11-30T05:42:18.399Z,6.00
2022-11-30T05:44:45.442Z,6.00
2022-11-30T05:47:12.337Z,6.04
2022-11-30T05:49:38.996Z,6.05
2022-11-30T05:52:05.507Z,6.07
2022-11-30T05:54:33.607Z,6.06
2022-11-30T05:57:00.117Z,6.05
2022-11-30T05:59:26.509Z,6.07
2022-11-30T06:01:53.608Z,6.05
2022-11-30T06:04:21.692Z,6.08
2022-11-30T06:06:49.379Z,6.05
2022-11-30T06:09:15.864Z,6.04
2022-11-30T06:11:42.351Z,6.12
2022-11-30T06:14:08.913Z,6.12
2022-11-30T06:16:39.637Z,6.07
2022-11-30T06:19:06.532Z,6.06
2022-11-30T06:21:33.255Z,6.04
2022-11-30T06:23:59.698Z,6.06
2022-11-30T06:26:26.237Z,6.06
2022-11-30T06:28:52.667Z,6.08
2022-11-30T06:31:19.170Z,6.11
2022-11-30T06:33:45.649Z,6.17
2022-11-30T06:36:12.382Z,6.16
2022-11-30T06:38:38.807Z,6.09
2022-11-30T06:41:12.094Z,6.15
2022-11-30T06:43:39.554Z,6.14
2022-11-30T06:46:07.494Z,6.10
2022-11-30T06:48:35.413Z,6.23
2022-11-30T06:51:04.538Z,6.17
2022-11-30T06:53:30.905Z,6.17
2022-11-30T06:55:57.430Z,6.10
2022-11-30T06:58:23.853Z,6.11
2022-11-30T07:00:50.382Z,6.15
2022-11-30T07:03:16.860Z,6.09
2022-11-30T07:05:45.273Z,6.09
2022-11-30T07:08:16.210Z,6.12
2022-11-30T07:10:44.913Z,6.11
2022-11-30T07:13:13.007Z,6.12
2022-11-30T07:15:43.016Z,6.12
2022-11-30T07:18:09.896Z,6.12
2022-11-30T07:20:37.378Z,6.10
2022-11-30T07:23:22.927Z,6.15
2022-11-30T07:26:08.061Z,6.15
2022-11-30T07:28:36.319Z,6.14
2022-11-30T07:31:23.094Z,6.12
2022-11-30T07:33:50.527Z,6.16
2022-11-30T07:36:18.751Z,6.19
2022-11-30T07:38:45.796Z,6.24
2022-11-30T07:41:12.737Z,6.24
2022-11-30T07:43:39.970Z,6.24
2022-11-30T07:46:07.249Z,6.18
2022-11-30T07:48:35.100Z,6.20
2022-11-30T07:51:03.996Z,6.24
2022-11-30T07:53:31.343Z,6.31
2022-11-30T07:56:10.881Z,6.27
2022-11-30T07:58:38.274Z,6.25
2022-11-30T08:01:10.128Z,6.27
2022-11-30T08:03:37.675Z,6.30
2022-11-30T08:06:07.287Z,6.35
2022-11-30T08:08:36.566Z,6.32
2022-11-30T08:11:05.208Z,6.38
2022-11-30T08:13:32.065Z,6.35
2022-11-30T08:16:02.980Z,6.38
2022-11-30T08:18:29.477Z,6.45
2022-11-30T08:20:57.779Z,6.43
2022-11-30T08:23:24.226Z,6.43
2022-11-30T08:25:50.825Z,6.41
2022-11-30T08:28:17.249Z,6.49
2022-11-30T08:30:44.886Z,6.52
2022-11-30T08:33:11.412Z,6.54
2022-11-30T08:35:37.949Z,6.53
2022-11-30T08:38:04.359Z,6.64
2022-11-30T08:40:30.989Z,6.55
2022-11-30T08:42:58.868Z,6.51
2022-11-30T08:45:26.042Z,6.54
2022-11-30T08:47:54.862Z,6.56
2022-11-30T08:50:21.381Z,6.53
2022-11-30T08:52:47.765Z,6.54
2022-11-30T08:55:16.199Z,6.54
2022-11-30T08:57:42.621Z,6.61
2022-11-30T09:00:09.973Z,6.59
2022-11-30T09:02:37.041Z,6.61
2022-11-30T09:05:03.821Z,6.63
2022-11-30T09:07:30.259Z,6.65
2022-11-30T09:09:56.793Z,6.62
2022-11-30T09:12:23.290Z,6.67
2022-11-30T09:14:57.321Z,6.82
2022-11-30T09:17:24.600Z,6.84
2022-11-30T09:19:51.167Z,6.71
2022-11-30T09:22:18.254Z,6.73
2022-11-30T09:24:45.441Z,6.73
2022-11-30T09:27:12.321Z,6.79
2022-11-30T09:29:38.932Z,6.71
2022-11-30T09:32:05.646Z,6.54
2022-11-30T09:34:32.517Z,6.54
2022-11-30T09:36:58.923Z,6.28
2022-11-30T09:39:25.552Z,6.36
2022-11-30T09:42:35.955Z,6.36
2022-11-30T09:45:14.740Z,6.23
2022-11-30T09:48:05.851Z,6.23
2022-11-30T09:50:38.834Z,6.20
2022-11-30T09:53:12.577Z,6.18
2022-11-30T09:55:42.676Z,6.20
2022-11-30T09:58:35.933Z,6.29
2022-11-30T10:01:17.086Z,6.19
2022-11-30T10:03:43.621Z,6.35
2022-11-30T10:06:46.080Z,6.23
2022-11-30T10:09:34.354Z,6.26
2022-11-30T10:12:19.440Z,6.27
2022-11-30T10:14:54.811Z,6.19
2022-11-30T10:17:32.973Z,6.28
2022-11-30T10:20:18.697Z,6.29
2022-11-30T10:22:57.390Z,6.31
2022-11-30T10:25:45.397Z,6.36
2022-11-30T10:28:46.580Z,6.35
2022-11-30T10:31:14.827Z,6.30
2022-11-30T10:33:51.641Z,6.27
2022-11-30T10:36:42.624Z,6.27
2022-11-30T10:39:27.637Z,6.29
2022-11-30T10:42:00.469Z,6.25
2022-11-30T10:44:40.007Z,6.27
2022-11-30T10:47:28.882Z,6.14
2022-11-30T10:49:55.490Z,6.15
2022-11-30T10:52:32.309Z,6.19
2022-11-30T10:55:04.594Z,6.20
2022-11-30T10:57:33.548Z,6.28
2022-11-30T11:00:06.448Z,6.31
2022-11-30T11:02:37.943Z,6.34
2022-11-30T11:05:24.052Z,6.20
2022-11-30T11:08:24.469Z,6.23
2022-11-30T11:10:54.148Z,6.18
2022-11-30T11:13:43.104Z,6.22
2022-11-30T11:16:12.166Z,6.26
2022-11-30T11:18:54.637Z,6.21
2022-11-30T11:21:23.354Z,6.20
2022-11-30T11:23:55.765Z,6.26
2022-11-30T11:26:29.148Z,6.27
2022-11-30T11:28:59.551Z,6.21
2022-11-30T11:31:40.853Z,6.25
2022-11-30T11:34:24.900Z,6.24
2022-11-30T11:37:16.801Z,6.24
2022-11-30T11:39:43.461Z,6.28
2022-11-30T11:42:22.390Z,6.23
2022-11-30T11:44:54.664Z,6.20
2022-11-30T11:47:26.947Z,6.23
2022-11-30T11:50:27.203Z,6.28
2022-11-30T11:53:25.039Z,6.22
2022-11-30T11:55:56.648Z,6.16
2022-11-30T11:58:40.613Z,6.15
2022-11-30T12:01:38.536Z,6.16
2022-11-30T12:04:38.182Z,6.19
2022-11-30T12:07:17.892Z,6.27
2022-11-30T12:10:21.857Z,6.24
2022-11-30T12:12:55.093Z,6.29
2022-11-30T12:15:36.994Z,6.33
2022-11-30T12:18:23.746Z,6.32
2022-11-30T12:20:55.715Z,6.36
2022-11-30T12:23:42.299Z,6.27
2022-11-30T12:26:33.687Z,6.22
2022-11-30T12:29:19.255Z,6.24
2022-11-30T12:31:48.424Z,6.27
2022-11-30T12:34:48.848Z,6.23
2022-11-30T12:37:22.153Z,6.22
2022-11-30T12:40:11.862Z,6.26
2022-11-30T12:42:53.299Z,6.23
2022-11-30T12:45:28.846Z,6.25
2022-11-30T12:48:38.607Z,6.16
2022-11-30T12:51:05.530Z,6.17
2022-11-30T12:53:55.928Z,6.17
2022-11-30T12:56:54.622Z,6.20
2022-11-30T12:59:30.395Z,6.15
2022-11-30T13:02:06.054Z,6.12
2022-11-30T13:04:46.194Z,6.10
2022-11-30T13:07:26.216Z,6.16
2022-11-30T13:10:02.363Z,6.15
2022-11-30T13:12:37.117Z,6.09
2022-11-30T13:15:15.735Z,6.12
2022-11-30T13:17:43.768Z,6.09
2022-11-30T13:20:22.389Z,6.11
2022-11-30T13:23:07.864Z,6.06
2022-11-30T13:28:42.015Z,6.04
2022-11-30T13:31:17.776Z,6.00
2022-11-30T13:33:46.688Z,6.06
2022-11-30T13:36:32.846Z,6.10
2022-11-30T13:39:14.836Z,6.08
2022-11-30T13:41:43.606Z,6.10
2022-11-30T13:44:32.739Z,6.09
2022-11-30T13:47:01.802Z,6.15
2022-11-30T13:49:35.579Z,6.13
2022-11-30T13:54:54.546Z,6.10
2022-11-30T13:57:30.183Z,6.12
2022-11-30T13:59:57.443Z,6.13
2022-11-30T14:02:33.446Z,6.15
2022-11-30T14:05:18.375Z,6.15
2022-11-30T14:07:50.876Z,6.12
2022-11-30T14:10:29.257Z,6.15
2022-11-30T14:13:04.058Z,6.11
2022-11-30T14:15:50.642Z,6.17
2022-11-30T14:18:22.877Z,6.14
2022-11-30T14:20:52.234Z,6.20
2022-11-30T14:23:27.442Z,6.11
2022-11-30T14:25:57.444Z,6.12
2022-11-30T14:28:36.100Z,6.14
2022-11-30T14:31:05.381Z,6.10
2022-11-30T14:33:41.564Z,6.18
2022-11-30T14:36:09.430Z,6.16
2022-11-30T14:38:41.281Z,6.12
2022-11-30T14:41:23.140Z,6.10
2022-11-30T14:44:07.011Z,6.08
2022-11-30T14:46:35.061Z,6.06
2022-11-30T14:49:22.768Z,6.06
2022-11-30T14:52:04.226Z,6.07
2022-11-30T14:54:47.262Z,6.12
2022-11-30T14:57:42.118Z,6.07
2022-11-30T15:00:16.755Z,6.07
2022-11-30T15:02:44.527Z,6.05
2022-11-30T15:05:17.361Z,6.04
2022-11-30T15:07:45.647Z,6.11
2022-11-30T15:10:29.843Z,6.07
2022-11-30T15:12:58.005Z,6.09
2022-11-30T15:15:27.708Z,6.06
2022-11-30T15:18:06.316Z,6.03
2022-11-30T15:20:41.705Z,6.03
2022-11-30T15:23:13.436Z,6.00
2022-11-30T15:25:46.823Z,6.07
2022-11-30T15:28:22.692Z,6.10
2022-11-30T15:30:56.152Z,6.03
2022-11-30T15:33:26.970Z,6.08
2022-11-30T15:36:18.775Z,6.09
2022-11-30T15:38:47.251Z,6.05
2022-11-30T15:41:22.381Z,6.03
2022-11-30T15:43:53.222Z,6.03
2022-11-30T15:46:33.358Z,6.01
2022-11-30T15:49:17.682Z,6.04
2022-11-30T15:51:46.763Z,6.01
2022-11-30T15:54:13.866Z,6.00
2022-11-30T15:56:40.303Z,6.05
2022-11-30T15:59:14.233Z,6.03
2022-11-30T16:02:02.610Z,6.05
2022-11-30T16:04:58.256Z,6.16
2022-11-30T16:07:28.420Z,6.05
2022-11-30T16:10:14.567Z,6.06
2022-11-30T16:12:42.819Z,6.03
2022-11-30T16:15:27.225Z,5.97
2022-11-30T16:17:57.028Z,5.99
2022-11-30T16:20:24.626Z,5.99
2022-11-30T16:22:52.271Z,6.00
2022-11-30T16:25:24.340Z,6.03
2022-11-30T16:27:51.687Z,6.04
2022-11-30T16:30:21.793Z,6.04
2022-11-30T16:32:49.134Z,5.98
2022-11-30T16:35:18.319Z,6.06
2022-11-30T16:37:44.766Z,5.98
2022-11-30T16:40:12.258Z,5.94
2022-11-30T16:42:38.694Z,5.90
2022-11-30T16:45:05.736Z,5.98
2022-11-30T16:47:32.541Z,5.88
2022-11-30T16:49:59.128Z,5.86
2022-11-30T16:52:25.967Z,5.89
2022-11-30T16:54:52.395Z,5.82
2022-11-30T16:57:19.003Z,5.88
2022-11-30T16:59:45.971Z,5.89
2022-11-30T17:02:20.014Z,5.87
2022-11-30T17:04:46.969Z,5.87
2022-11-30T17:07:13.634Z,5.89
2022-11-30T17:09:40.072Z,5.87
2022-11-30T17:12:06.775Z,5.85
2022-11-30T17:14:33.257Z,5.87
2022-11-30T17:17:02.728Z,5.85
2022-11-30T17:19:29.202Z,5.83
2022-11-30T17:21:55.856Z,5.85
2022-11-30T17:24:22.485Z,5.90
2022-11-30T17:26:49.154Z,5.89
2022-11-30T17:29:15.621Z,5.88
2022-11-30T17:31:42.197Z,5.94
2022-11-30T17:34:08.723Z,5.95
2022-11-30T17:36:35.366Z,5.93
2022-11-30T17:39:08.224Z,5.87
2022-11-30T17:41:35.084Z,5.84
2022-11-30T17:44:02.539Z,5.78
2022-11-30T17:46:29.136Z,5.79
2022-11-30T17:48:55.980Z,5.77
2022-11-30T17:51:22.669Z,5.86
2022-11-30T17:53:49.264Z,5.82
2022-11-30T17:56:16.996Z,5.79
2022-11-30T17:58:44.929Z,5.84
2022-11-30T18:01:17.601Z,5.83
2022-11-30T18:03:44.859Z,5.87
2022-11-30T18:06:11.617Z,5.92
2022-11-30T18:08:38.952Z,6.01
2022-11-30T18:11:17.537Z,6.01
2022-11-30T18:13:44.160Z,5.91
2022-11-30T18:16:16.579Z,5.89
2022-11-30T18:18:47.699Z,5.89
2022-11-30T18:21:17.151Z,5.88
2022-11-30T18:23:43.884Z,5.82
2022-11-30T18:26:15.923Z,5.87
2022-11-30T18:28:43.441Z,5.82
2022-11-30T18:31:10.009Z,5.78
2022-11-30T18:33:37.806Z,5.73
2022-11-30T18:36:08.841Z,5.72
2022-11-30T18:38:38.239Z,5.81
2022-11-30T18:41:06.270Z,5.80
2022-11-30T18:43:33.767Z,5.72
2022-11-30T18:46:09.023Z,5.72
2022-11-30T18:48:37.074Z,5.74
2022-11-30T18:51:15.192Z,5.82
2022-11-30T18:53:42.055Z,5.82
2022-11-30T18:56:14.495Z,5.81
2022-11-30T18:58:42.114Z,5.79
2022-11-30T19:01:11.816Z,5.80
2022-11-30T19:03:38.643Z,5.86
2022-11-30T19:06:06.377Z,5.82
2022-11-30T19:08:33.446Z,5.74
2022-11-30T19:11:07.961Z,5.71
2022-11-30T19:13:35.131Z,5.69
2022-11-30T19:16:07.724Z,5.72
2022-11-30T19:18:34.695Z,5.73
2022-11-30T19:21:01.904Z,5.75
2022-11-30T19:23:28.374Z,5.76
2022-11-30T19:26:00.321Z,5.77
2022-11-30T19:28:29.352Z,5.82
2022-11-30T19:30:56.633Z,5.82
2022-11-30T19:33:23.365Z,5.79
2022-11-30T19:35:49.853Z,5.82
2022-11-30T19:38:16.496Z,5.80
2022-11-30T19:40:42.957Z,5.86
2022-11-30T19:43:09.524Z,5.76
2022-11-30T19:45:35.874Z,5.74
2022-11-30T19:48:02.486Z,5.77
2022-11-30T19:50:28.833Z,5.79
2022-11-30T19:52:55.443Z,5.81
2022-11-30T19:55:22.463Z,5.83
2022-11-30T19:57:49.034Z,5.85
2022-11-30T20:00:16.170Z,5.85
2022-11-30T20:02:42.884Z,5.78
2022-11-30T20:05:09.454Z,5.81
2022-11-30T20:07:36.475Z,5.81
2022-11-30T20:10:03.055Z,5.79
2022-11-30T20:12:29.804Z,5.82
2022-11-30T20:14:56.191Z,5.82
2022-11-30T20:17:22.795Z,5.80
2022-11-30T20:19:50.630Z,5.78
2022-11-30T20:22:17.067Z,5.82
2022-11-30T20:24:43.797Z,5.74
2022-11-30T20:27:10.246Z,5.71
2022-11-30T20:29:37.852Z,5.78
2022-11-30T20:32:04.417Z,5.75
2022-11-30T20:34:34.619Z,5.73
2022-11-30T20:37:02.375Z,5.72
2022-11-30T20:39:29.078Z,5.76
2022-11-30T20:41:55.475Z,5.75
2022-11-30T20:44:23.064Z,5.72
2022-11-30T20:46:49.507Z,5.71
2022-11-30T20:49:18.280Z,5.75
2022-11-30T20:51:45.161Z,5.73
2022-11-30T20:54:12.448Z,5.69
2022-11-30T20:56:39.577Z,5.60
2022-11-30T20:59:14.609Z,5.56
2022-11-30T21:01:43.428Z,5.60
2022-11-30T21:04:10.585Z,5.65
2022-11-30T21:06:37.555Z,5.64
2022-11-30T21:09:04.817Z,5.66
2022-11-30T21:11:31.213Z,5.62
2022-11-30T21:13:58.674Z,5.62
2022-11-30T21:16:28.876Z,5.58
2022-11-30T21:18:58.636Z,5.57
2022-11-30T21:21:31.300Z,5.51
2022-11-30T21:24:03.117Z,5.54
2022-11-30T21:26:35.670Z,5.52
2022-11-30T21:29:09.678Z,5.58
2022-11-30T21:31:36.134Z,5.61
2022-11-30T21:34:03.122Z,5.53
2022-11-30T21:36:29.740Z,5.51
2022-11-30T21:39:04.863Z,5.51
2022-11-30T21:41:32.893Z,5.49
2022-11-30T21:43:59.458Z,5.48
2022-11-30T21:46:25.986Z,5.54
2022-11-30T21:48:52.529Z,5.61
2022-11-30T21:51:27.475Z,5.60
2022-11-30T21:53:56.474Z,5.61
2022-11-30T21:56:25.541Z,5.63
2022-11-30T21:58:52.046Z,5.60
2022-11-30T22:01:21.883Z,5.54
2022-11-30T22:03:48.378Z,5.52
2022-11-30T22:06:17.474Z,5.73
2022-11-30T22:08:44.911Z,5.56
2022-11-30T22:11:12.483Z,5.53
2022-11-30T22:13:39.450Z,5.57
2022-11-30T22:16:14.428Z,5.53
2022-11-30T22:18:41.423Z,5.48
2022-11-30T22:21:16.759Z,5.50
2022-11-30T22:23:46.078Z,5.56
2022-11-30T22:26:12.468Z,5.53
2022-11-30T22:28:40.236Z,5.55
2022-11-30T22:31:09.913Z,5.45
2022-11-30T22:33:40.016Z,5.47
2022-11-30T22:36:08.434Z,5.45
2022-11-30T22:38:34.980Z,5.44
2022-11-30T22:41:13.437Z,5.44
2022-11-30T22:43:41.103Z,5.44
2022-11-30T22:46:09.537Z,5.56
2022-11-30T22:48:37.348Z,5.45
2022-11-30T22:51:04.002Z,5.49
2022-11-30T22:53:30.696Z,5.50
2022-11-30T22:56:05.367Z,5.49
2022-11-30T22:58:32.420Z,5.47
2022-11-30T23:01:06.757Z,5.56
2022-11-30T23:03:33.236Z,5.49
2022-11-30T23:05:59.758Z,5.43
2022-11-30T23:08:26.173Z,5.43
2022-11-30T23:10:57.411Z,5.37
2022-11-30T23:13:24.822Z,5.47
2022-11-30T23:15:54.028Z,5.53
2022-11-30T23:18:20.592Z,5.43
2022-11-30T23:20:47.048Z,5.52
2022-11-30T23:23:13.442Z,5.54
2022-11-30T23:25:40.118Z,5.53
2022-11-30T23:28:06.671Z,5.60
2022-11-30T23:30:33.342Z,5.67
2022-11-30T23:32:59.741Z,5.51
2022-11-30T23:35:26.580Z,5.49
2022-11-30T23:37:53.080Z,5.46
2022-11-30T23:40:19.911Z,5.43
2022-11-30T23:42:46.348Z,5.47
2022-11-30T23:45:13.103Z,5.64
2022-11-30T23:47:39.510Z,5.47
2022-11-30T23:50:06.726Z,5.50
2022-11-30T23:52:33.180Z,5.42
2022-11-30T23:54:59.652Z,5.48
2022-11-30T23:57:26.217Z,5.47
2022-11-30T23:59:52.603Z,5.43
